Time;durP1;ratioP1;P1;durP2;ratioP2;P2;SDS_P1;SDS_P2;PMS_P1;PMS_P2;Temp;Humidity;BMP_temperature;BMP_pressure;BME280_temperature;BME280_humidity;BME280_pressure;Samples;Min_cycle;Max_cycle;Signal;HPM_P1;HPM_P2
2023/06/28 00:00:42;;;;;;;87.50;2.20;;;23.70;23.30;;;;;;4975814;28;20253;-74
2023/06/28 00:03:10;;;;;;;87.27;2.13;;;23.70;24.40;;;;;;4975858;28;20262;-73
2023/06/28 00:05:37;;;;;;;87.60;2.20;;;23.60;24.10;;;;;;4975230;28;20258;-73
2023/06/28 00:08:02;;;;;;;87.17;2.13;;;23.70;24.20;;;;;;4975026;28;20455;-73
2023/06/28 00:10:28;;;;;;;87.47;2.23;;;23.70;24.20;;;;;;4975335;28;20493;-73
2023/06/28 00:12:53;;;;;;;87.50;2.20;;;23.70;24.00;;;;;;4975576;28;20242;-73
2023/06/28 00:15:19;;;;;;;87.93;2.33;;;23.60;24.80;;;;;;4975228;28;20170;-74
2023/06/28 00:17:44;;;;;;;87.50;2.13;;;23.60;24.80;;;;;;4975462;28;20244;-73
2023/06/28 00:20:11;;;;;;;87.77;2.40;;;23.50;24.50;;;;;;4974858;28;20186;-73
2023/06/28 00:22:39;;;;;;;87.97;2.40;;;23.50;23.40;;;;;;4974995;28;20178;-73
2023/06/28 00:25:05;;;;;;;89.37;2.20;;;23.60;23.60;;;;;;4975121;28;20913;-74
2023/06/28 00:27:31;;;;;;;87.80;2.23;;;23.60;24.70;;;;;;4974957;28;20446;-73
2023/06/28 00:29:57;;;;;;;87.97;2.40;;;23.50;23.20;;;;;;4975064;28;20457;-73
2023/06/28 00:32:27;;;;;;;88.20;2.20;;;23.60;23.90;;;;;;4975014;28;20766;-75
2023/06/28 00:34:53;;;;;;;87.90;2.23;;;23.30;23.00;;;;;;4975011;28;20398;-73
2023/06/28 00:37:18;;;;;;;88.00;2.33;;;23.50;22.70;;;;;;4974801;28;20538;-74
2023/06/28 00:39:44;;;;;;;88.20;2.53;;;23.70;22.60;;;;;;4975185;28;20189;-72
2023/06/28 00:42:10;;;;;;;88.40;2.60;;;23.80;22.30;;;;;;4974964;28;20182;-73
2023/06/28 00:44:36;;;;;;;88.37;2.47;;;23.90;22.80;;;;;;4974586;28;20178;-73
2023/06/28 00:47:03;;;;;;;87.57;2.37;;;24.00;22.20;;;;;;4974001;28;20446;-74
2023/06/28 00:49:37;;;;;;;87.77;2.30;;;24.20;21.50;;;;;;4974633;28;20445;-73
2023/06/28 00:52:05;;;;;;;88.30;2.30;;;24.20;21.50;;;;;;4974732;28;20413;-73
2023/06/28 00:54:30;;;;;;;87.73;2.20;;;23.90;23.80;;;;;;4974464;28;20407;-72
2023/06/28 00:56:56;;;;;;;87.87;2.27;;;23.80;23.90;;;;;;4974387;28;20426;-73
2023/06/28 00:59:22;;;;;;;87.87;2.30;;;23.60;23.30;;;;;;4974715;28;20185;-73
2023/06/28 01:01:49;;;;;;;89.17;2.77;;;23.40;22.70;;;;;;4974649;28;20924;-73
2023/06/28 01:04:15;;;;;;;87.60;2.00;;;23.50;24.10;;;;;;4974301;28;20227;-72
2023/06/28 01:06:51;;;;;;;87.93;2.20;;;23.60;23.80;;;;;;4973830;28;20433;-73
2023/06/28 01:09:23;;;;;;;88.00;2.40;;;23.50;22.70;;;;;;4974392;28;20457;-74
2023/06/28 01:11:53;;;;;;;89.77;2.40;;;23.60;23.40;;;;;;4974418;28;20419;-74
2023/06/28 01:14:19;;;;;;;87.90;2.20;;;23.50;23.90;;;;;;4974847;28;20457;-74
2023/06/28 01:16:49;;;;;;;89.30;2.70;;;23.40;22.70;;;;;;4973801;28;20438;-73
2023/06/28 01:19:16;;;;;;;87.80;2.03;;;23.20;23.40;;;;;;4974266;28;20428;-73
2023/06/28 01:21:45;;;;;;;88.60;2.27;;;23.50;24.00;;;;;;4974177;28;20414;-74
2023/06/28 01:24:12;;;;;;;88.03;2.40;;;23.50;24.60;;;;;;4974314;28;20417;-74
2023/06/28 01:26:39;;;;;;;88.00;2.30;;;23.40;24.70;;;;;;4974079;28;20516;-75
2023/06/28 01:29:05;;;;;;;88.30;2.30;;;23.40;24.20;;;;;;4974162;28;20464;-75
2023/06/28 01:31:31;;;;;;;88.67;2.57;;;23.40;23.90;;;;;;4973842;28;20406;-74
2023/06/28 01:33:57;;;;;;;88.60;2.70;;;23.40;24.30;;;;;;4974097;28;20468;-73
2023/06/28 01:36:23;;;;;;;89.03;2.63;;;23.30;24.40;;;;;;4973407;28;20295;-74
2023/06/28 01:38:49;;;;;;;87.87;2.07;;;23.50;24.30;;;;;;4974021;28;20541;-74
2023/06/28 01:41:15;;;;;;;88.20;2.37;;;23.50;23.70;;;;;;4973487;28;21047;-74
2023/06/28 01:43:41;;;;;;;87.67;2.00;;;23.60;23.30;;;;;;4973826;28;20423;-73
2023/06/28 01:46:08;;;;;;;88.10;2.40;;;23.50;24.50;;;;;;4973238;28;20525;-73
2023/06/28 01:48:33;;;;;;;88.47;2.60;;;23.50;23.00;;;;;;4973727;28;20512;-74
2023/06/28 01:51:00;;;;;;;88.07;2.30;;;23.70;22.10;;;;;;4973577;28;20898;-74
2023/06/28 01:53:25;;;;;;;88.40;2.40;;;23.60;24.30;;;;;;4973683;28;20170;-74
2023/06/28 01:55:51;;;;;;;87.90;2.07;;;23.50;23.90;;;;;;4973261;28;20800;-73
2023/06/28 01:58:17;;;;;;;88.07;2.30;;;23.40;24.40;;;;;;4972440;28;20170;-74
2023/06/28 02:00:43;;;;;;;88.07;2.30;;;23.50;22.50;;;;;;4973461;28;20500;-74
2023/06/28 02:03:08;;;;;;;88.20;2.40;;;23.70;21.90;;;;;;4973149;28;20177;-73
2023/06/28 02:05:34;;;;;;;87.87;2.03;;;23.70;23.40;;;;;;4972953;28;20845;-75
2023/06/28 02:08:01;;;;;;;88.00;2.20;;;23.60;23.70;;;;;;4973208;28;20203;-75
2023/06/28 02:10:26;;;;;;;88.53;2.57;;;23.50;24.00;;;;;;4973298;28;20202;-73
2023/06/28 02:12:52;;;;;;;88.67;2.53;;;23.40;23.60;;;;;;4973213;28;20408;-73
2023/06/28 02:15:18;;;;;;;88.00;2.20;;;23.40;23.70;;;;;;4972713;28;20178;-74
2023/06/28 02:17:44;;;;;;;88.00;2.30;;;23.50;24.80;;;;;;4971822;28;20198;-74
2023/06/28 02:20:12;;;;;;;88.80;2.30;;;23.40;26.00;;;;;;4973189;28;20179;-74
2023/06/28 02:22:38;;;;;;;88.00;2.17;;;23.50;25.00;;;;;;4972826;28;20184;-72
2023/06/28 02:25:04;;;;;;;88.20;2.30;;;23.20;25.10;;;;;;4972928;28;20788;-74
2023/06/28 02:27:30;;;;;;;88.17;2.20;;;22.90;25.10;;;;;;4972770;28;20425;-74
2023/06/28 02:29:56;;;;;;;88.17;2.27;;;22.90;25.40;;;;;;4973075;28;20462;-74
2023/06/28 02:32:22;;;;;;;88.10;2.20;;;22.90;25.60;;;;;;4972799;28;20415;-74
2023/06/28 02:34:48;;;;;;;88.67;2.50;;;22.80;26.70;;;;;;4972706;28;20257;-74
2023/06/28 02:37:14;;;;;;;88.53;2.43;;;22.80;25.60;;;;;;4970953;28;20544;-74
2023/06/28 02:39:39;;;;;;;88.97;2.43;;;23.00;26.00;;;;;;4972916;28;20409;-72
2023/06/28 02:42:05;;;;;;;102.20;2.80;;;22.90;24.70;;;;;;4972593;28;20174;-74
2023/06/28 02:44:32;;;;;;;88.77;2.50;;;22.80;25.30;;;;;;4972422;28;20532;-74
2023/06/28 02:46:58;;;;;;;88.93;2.40;;;22.70;25.90;;;;;;4972530;28;20451;-75
2023/06/28 02:49:24;;;;;;;88.20;2.30;;;22.90;25.50;;;;;;4972657;28;20456;-74
2023/06/28 02:51:49;;;;;;;88.20;2.17;;;22.90;26.60;;;;;;4972686;28;20546;-74
2023/06/28 02:54:15;;;;;;;88.20;1.90;;;22.90;25.40;;;;;;4972680;28;20557;-74
2023/06/28 02:56:40;;;;;;;89.00;2.30;;;23.10;25.40;;;;;;4972101;28;20191;-72
2023/06/28 02:59:06;;;;;;;88.40;2.20;;;22.90;25.60;;;;;;4972696;28;20275;-72
2023/06/28 03:01:31;;;;;;;88.70;2.30;;;22.90;25.70;;;;;;4972689;28;20213;-71
2023/06/28 03:03:57;;;;;;;88.60;2.20;;;22.80;25.80;;;;;;4972581;28;20184;-72
2023/06/28 03:06:22;;;;;;;88.80;2.37;;;22.80;25.80;;;;;;4972000;28;20223;-72
2023/06/28 03:08:48;;;;;;;88.50;2.20;;;22.70;25.30;;;;;;4972580;28;20201;-72
2023/06/28 03:11:13;;;;;;;89.10;2.30;;;22.70;25.80;;;;;;4976507;28;20185;-72
2023/06/28 03:13:40;;;;;;;88.53;2.10;;;22.80;25.80;;;;;;4976477;28;20324;-73
2023/06/28 03:16:06;;;;;;;88.30;1.90;;;22.70;25.60;;;;;;4976273;28;20624;-73
2023/06/28 03:18:31;;;;;;;89.80;2.57;;;22.80;26.20;;;;;;4976349;28;20577;-72
2023/06/28 03:20:57;;;;;;;89.77;2.53;;;22.70;26.20;;;;;;4976488;28;20915;-72
2023/06/28 03:23:22;;;;;;;88.37;2.10;;;22.60;25.70;;;;;;4976085;28;20552;-72
2023/06/28 03:25:48;;;;;;;88.63;2.07;;;22.60;26.30;;;;;;4976045;28;20573;-73
2023/06/28 03:28:16;;;;;;;90.20;2.47;;;22.50;26.10;;;;;;4976042;28;20180;-73
2023/06/28 03:30:41;;;;;;;90.50;2.67;;;22.50;26.50;;;;;;4976333;28;20661;-73
2023/06/28 03:33:07;;;;;;;88.97;2.20;;;22.50;26.20;;;;;;4976079;28;20408;-73
2023/06/28 03:35:32;;;;;;;89.00;2.20;;;22.40;26.60;;;;;;4975775;28;20712;-73
2023/06/28 03:37:58;;;;;;;115.07;3.10;;;22.40;27.10;;;;;;4975864;28;20192;-73
2023/06/28 03:40:23;;;;;;;89.10;2.43;;;22.40;26.20;;;;;;4975989;28;20217;-73
2023/06/28 03:42:49;;;;;;;89.67;2.40;;;22.20;26.60;;;;;;4975839;28;20188;-73
2023/06/28 03:45:15;;;;;;;90.03;2.23;;;22.30;27.10;;;;;;4975613;28;20192;-73
2023/06/28 03:47:41;;;;;;;88.83;2.17;;;22.30;27.40;;;;;;4976059;28;20201;-73
2023/06/28 03:50:07;;;;;;;88.97;2.20;;;22.40;27.10;;;;;;4975825;28;20506;-73
2023/06/28 03:52:33;;;;;;;89.17;2.27;;;22.40;26.00;;;;;;4975893;28;20636;-73
2023/06/28 03:54:59;;;;;;;89.23;2.37;;;22.30;26.00;;;;;;4975518;28;20424;-73
2023/06/28 03:57:25;;;;;;;88.90;2.17;;;22.30;26.40;;;;;;4975428;28;20437;-73
2023/06/28 03:59:50;;;;;;;89.10;2.30;;;22.30;26.30;;;;;;4975839;28;20184;-73
2023/06/28 04:02:16;;;;;;;88.93;2.20;;;22.20;26.80;;;;;;4975531;28;20642;-73
2023/06/28 04:04:41;;;;;;;88.90;2.23;;;22.30;26.70;;;;;;4975436;28;20297;-74
2023/06/28 04:07:07;;;;;;;89.00;2.27;;;22.40;26.60;;;;;;4975213;28;20285;-73
2023/06/28 04:09:33;;;;;;;89.07;2.30;;;22.40;26.80;;;;;;4975362;28;20209;-73
2023/06/28 04:11:58;;;;;;;88.97;2.23;;;22.50;26.60;;;;;;4975512;28;20663;-73
2023/06/28 04:14:24;;;;;;;89.07;2.30;;;22.40;26.90;;;;;;4975436;28;20422;-73
2023/06/28 04:16:53;;;;;;;88.97;2.20;;;22.40;26.70;;;;;;4975382;28;20201;-73
2023/06/28 04:19:19;;;;;;;89.00;2.23;;;22.50;26.70;;;;;;4975158;28;20715;-73
2023/06/28 04:21:44;;;;;;;89.47;2.40;;;22.50;27.30;;;;;;4974260;28;20425;-73
2023/06/28 04:24:10;;;;;;;89.53;2.47;;;22.60;27.40;;;;;;4973694;28;20416;-73
2023/06/28 04:26:36;;;;;;;89.60;2.40;;;22.50;27.00;;;;;;4973706;28;20204;-73
2023/06/28 04:29:02;;;;;;;89.07;2.50;;;22.50;27.20;;;;;;4974984;28;20209;-73
2023/06/28 04:31:28;;;;;;;89.00;2.20;;;22.60;27.10;;;;;;4975060;28;20266;-73
2023/06/28 04:33:57;;;;;;;88.90;2.10;;;22.60;27.90;;;;;;4975104;28;20253;-73
2023/06/28 04:36:25;;;;;;;89.03;2.23;;;22.60;27.50;;;;;;4972716;28;20471;-73
2023/06/28 04:38:55;;;;;;;89.57;2.40;;;22.60;27.10;;;;;;4975082;28;20418;-74
2023/06/28 04:41:25;;;;;;;89.10;2.20;;;22.70;26.80;;;;;;4974715;28;20511;-73
2023/06/28 04:43:55;;;;;;;89.40;2.47;;;22.70;27.10;;;;;;4975214;28;20427;-73
2023/06/28 04:46:26;;;;;;;89.00;2.10;;;22.80;27.00;;;;;;4974733;28;20437;-73
2023/06/28 04:48:52;;;;;;;89.17;2.20;;;22.80;26.90;;;;;;4974601;28;20496;-74
2023/06/28 04:51:19;;;;;;;89.77;2.43;;;22.70;26.60;;;;;;4974311;28;20410;-73
2023/06/28 04:53:46;;;;;;;89.17;2.23;;;22.80;27.30;;;;;;4974716;28;20420;-73
2023/06/28 04:56:11;;;;;;;89.70;2.50;;;22.90;27.90;;;;;;4973812;28;20524;-73
2023/06/28 04:58:37;;;;;;;89.30;2.43;;;22.90;26.80;;;;;;4973084;28;20500;-73
2023/06/28 05:01:07;;;;;;;88.90;2.10;;;22.90;26.70;;;;;;4973541;28;20696;-73
2023/06/28 05:03:38;;;;;;;93.37;2.70;;;23.00;27.10;;;;;;4974998;28;20978;-73
2023/06/28 05:06:07;;;;;;;90.27;2.40;;;23.10;26.40;;;;;;4974714;28;20466;-73
2023/06/28 05:08:34;;;;;;;89.40;2.33;;;23.10;27.30;;;;;;4974439;28;20414;-73
2023/06/28 05:11:00;;;;;;;89.20;2.40;;;22.90;25.70;;;;;;4974921;28;20422;-73
2023/06/28 05:13:25;;;;;;;89.37;2.47;;;22.80;26.50;;;;;;4974894;28;20424;-74
2023/06/28 05:15:51;;;;;;;89.50;2.53;;;22.80;27.20;;;;;;4974295;28;20491;-73
2023/06/28 05:18:20;;;;;;;95.83;3.07;;;22.90;27.20;;;;;;4974405;28;20174;-73
2023/06/28 05:20:46;;;;;;;89.40;2.30;;;22.80;27.20;;;;;;4974600;28;20225;-73
2023/06/28 05:23:20;;;;;;;88.93;2.23;;;22.80;26.90;;;;;;4974625;28;20453;-73
2023/06/28 05:25:46;;;;;;;92.83;2.73;;;23.10;27.90;;;;;;4974032;28;20641;-73
2023/06/28 05:28:14;;;;;;;88.90;2.20;;;23.10;26.50;;;;;;4974545;28;20406;-73
2023/06/28 05:30:41;;;;;;;89.30;2.50;;;23.10;27.00;;;;;;4974083;28;20461;-73
2023/06/28 05:33:07;;;;;;;89.83;2.40;;;23.30;25.70;;;;;;4974094;28;20714;-73
2023/06/28 05:35:34;;;;;;;89.40;2.40;;;23.40;26.40;;;;;;4973991;28;20519;-73
2023/06/28 05:38:04;;;;;;;88.80;2.20;;;23.30;26.40;;;;;;4974216;28;20426;-73
2023/06/28 05:40:30;;;;;;;89.13;2.43;;;23.30;25.90;;;;;;4973989;28;20414;-73
2023/06/28 05:42:58;;;;;;;89.40;2.40;;;23.30;26.20;;;;;;4974256;28;20421;-72
2023/06/28 05:45:25;;;;;;;88.70;2.00;;;22.80;26.90;;;;;;4973809;28;20418;-73
2023/06/28 05:47:51;;;;;;;89.27;2.33;;;22.70;27.70;;;;;;4974135;28;20800;-73
2023/06/28 05:50:17;;;;;;;88.97;2.30;;;22.80;27.50;;;;;;4974107;28;20453;-73
2023/06/28 05:52:45;;;;;;;88.77;2.20;;;23.00;26.60;;;;;;4973866;28;20755;-73
2023/06/28 05:55:12;;;;;;;89.17;2.57;;;23.00;26.60;;;;;;4973662;28;20506;-73
2023/06/28 05:57:37;;;;;;;88.90;2.40;;;22.70;26.50;;;;;;4973950;28;20435;-73
2023/06/28 06:00:08;;;;;;;88.90;2.40;;;22.60;27.80;;;;;;4972451;28;21000;-73
2023/06/28 06:02:34;;;;;;;88.90;2.27;;;22.50;26.80;;;;;;4973696;28;20638;-73
2023/06/28 06:05:03;;;;;;;89.10;2.30;;;22.70;27.90;;;;;;4973512;28;20418;-73
2023/06/28 06:07:30;;;;;;;89.27;2.73;;;22.90;27.30;;;;;;4973696;28;20226;-73
2023/06/28 06:09:56;;;;;;;89.17;2.57;;;20.90;25.30;;;;;;4973698;28;20834;-73
2023/06/28 06:12:23;;;;;;;89.50;2.63;;;23.20;26.70;;;;;;4973764;28;20462;-73
2023/06/28 06:14:50;;;;;;;89.10;2.30;;;23.40;26.70;;;;;;4972994;28;20454;-72
2023/06/28 06:17:19;;;;;;;89.77;2.27;;;23.70;26.80;;;;;;4973578;28;20440;-72
2023/06/28 06:19:44;;;;;;;89.27;2.20;;;23.80;26.00;;;;;;4973259;28;20411;-72
2023/06/28 06:22:10;;;;;;;88.90;2.30;;;23.80;26.20;;;;;;4973546;28;20572;-72
2023/06/28 06:24:36;;;;;;;88.67;2.30;;;23.80;25.60;;;;;;4973240;28;20188;-72
2023/06/28 06:27:02;;;;;;;89.27;2.67;;;23.50;26.20;;;;;;4973061;28;20237;-72
2023/06/28 06:29:28;;;;;;;89.10;2.20;;;23.60;26.40;;;;;;4973491;28;20214;-73
2023/06/28 06:31:53;;;;;;;89.07;2.23;;;23.90;25.90;;;;;;4973358;28;20879;-73
2023/06/28 06:34:19;;;;;;;89.10;2.50;;;24.00;24.60;;;;;;4973345;28;20196;-73
2023/06/28 06:36:45;;;;;;;89.20;2.40;;;24.10;24.70;;;;;;4972889;28;20222;-73
2023/06/28 06:39:10;;;;;;;88.70;2.27;;;24.10;23.80;;;;;;4973118;28;20538;-74
2023/06/28 06:41:36;;;;;;;88.87;2.37;;;24.30;23.40;;;;;;4973102;28;20258;-73
2023/06/28 06:44:01;;;;;;;89.40;2.33;;;24.40;23.10;;;;;;4972618;28;20179;-74
2023/06/28 06:46:27;;;;;;;89.20;2.33;;;24.40;23.10;;;;;;4972890;28;20203;-73
2023/06/28 06:48:53;;;;;;;88.17;2.10;;;24.10;24.00;;;;;;4973216;28;20254;-73
2023/06/28 06:51:19;;;;;;;88.40;2.20;;;24.20;24.60;;;;;;4973096;28;20256;-73
2023/06/28 06:53:45;;;;;;;88.87;2.53;;;24.10;23.30;;;;;;4973010;28;20522;-74
2023/06/28 06:56:10;;;;;;;88.10;2.17;;;23.70;22.80;;;;;;4972618;28;20220;-74
2023/06/28 06:58:36;;;;;;;88.37;2.33;;;23.70;22.80;;;;;;4973091;28;20270;-73
2023/06/28 07:01:02;;;;;;;88.60;2.33;;;23.30;23.60;;;;;;4972998;28;20178;-73
2023/06/28 07:03:28;;;;;;;88.27;2.40;;;22.60;24.40;;;;;;4972831;28;20411;-73
2023/06/28 07:05:53;;;;;;;88.30;2.30;;;21.80;25.60;;;;;;4972616;28;20190;-73
2023/06/28 07:08:19;;;;;;;87.57;2.20;;;21.70;25.90;;;;;;4973238;28;20203;-73
2023/06/28 07:10:44;;;;;;;88.57;2.30;;;22.30;24.90;;;;;;4972866;28;20207;-73
2023/06/28 07:13:10;;;;;;;87.97;2.17;;;23.00;25.40;;;;;;4972637;28;20169;-73
2023/06/28 07:15:36;;;;;;;88.77;2.50;;;23.60;24.50;;;;;;4972593;28;20191;-73
2023/06/28 07:18:03;;;;;;;88.00;2.30;;;23.70;23.90;;;;;;4973149;28;20405;-74
2023/06/28 07:20:29;;;;;;;88.63;2.30;;;23.50;23.30;;;;;;4972815;28;20180;-73
2023/06/28 07:22:54;;;;;;;88.27;2.40;;;23.50;23.70;;;;;;4973132;28;20407;-73
2023/06/28 07:25:20;;;;;;;89.10;2.93;;;23.90;23.60;;;;;;4972579;28;20204;-74
2023/06/28 07:27:45;;;;;;;87.87;2.37;;;24.10;22.10;;;;;;4972659;28;20197;-74
2023/06/28 07:30:11;;;;;;;87.97;2.30;;;24.50;23.10;;;;;;4972804;28;20579;-74
2023/06/28 07:32:37;;;;;;;87.80;2.40;;;24.10;22.20;;;;;;4972733;28;20178;-74
2023/06/28 07:35:02;;;;;;;88.20;2.50;;;24.40;22.90;;;;;;4972568;28;20698;-74
2023/06/28 07:37:30;;;;;;;87.87;2.40;;;24.40;23.50;;;;;;4972527;28;20685;-74
2023/06/28 07:39:57;;;;;;;88.27;2.50;;;24.10;22.50;;;;;;4972507;28;20264;-74
2023/06/28 07:42:23;;;;;;;87.87;2.40;;;24.50;22.00;;;;;;4972766;28;20756;-73
2023/06/28 07:44:49;;;;;;;88.00;2.30;;;24.80;21.50;;;;;;4972764;28;20452;-73
2023/06/28 07:47:15;;;;;;;86.90;2.00;;;24.70;20.80;;;;;;4971211;28;20453;-74
2023/06/28 07:49:40;;;;;;;87.60;2.40;;;24.90;21.60;;;;;;4972341;28;20190;-73
2023/06/28 07:52:07;;;;;;;87.50;2.30;;;25.10;21.30;;;;;;4972531;28;20665;-72
2023/06/28 07:54:32;;;;;;;87.10;2.20;;;24.60;21.00;;;;;;4972349;28;20177;-73
2023/06/28 07:56:58;;;;;;;87.57;2.40;;;24.50;21.30;;;;;;4975835;28;20441;-73
2023/06/28 07:59:24;;;;;;;87.77;2.33;;;24.10;21.60;;;;;;4976176;28;20605;-73
2023/06/28 08:01:49;;;;;;;87.27;2.33;;;24.60;22.30;;;;;;4976388;28;20174;-73
2023/06/28 08:04:16;;;;;;;87.20;2.30;;;24.50;21.20;;;;;;4976103;28;20522;-73
2023/06/28 08:06:42;;;;;;;87.10;2.40;;;24.80;21.10;;;;;;4975594;28;20669;-73
2023/06/28 08:09:08;;;;;;;87.37;2.47;;;24.50;21.20;;;;;;4975814;28;20539;-73
2023/06/28 08:11:34;;;;;;;86.97;2.30;;;24.70;21.40;;;;;;4974892;28;20430;-73
2023/06/28 08:13:59;;;;;;;86.97;2.30;;;25.10;21.00;;;;;;4975887;28;20182;-73
2023/06/28 08:16:25;;;;;;;87.00;2.37;;;25.50;20.10;;;;;;4975308;28;20322;-73
2023/06/28 08:18:51;;;;;;;86.50;2.13;;;25.70;20.50;;;;;;4975781;28;20205;-74
2023/06/28 08:21:16;;;;;;;87.27;2.40;;;25.80;19.60;;;;;;4975683;28;20189;-73
2023/06/28 08:23:42;;;;;;;87.00;2.37;;;25.60;19.90;;;;;;4975662;28;20264;-73
2023/06/28 08:26:08;;;;;;;86.60;2.50;;;25.50;20.60;;;;;;4975373;28;20602;-73
2023/06/28 08:28:33;;;;;;;86.93;2.30;;;25.80;19.80;;;;;;4975298;28;20174;-73
2023/06/28 08:30:59;;;;;;;86.23;2.00;;;25.90;20.40;;;;;;4975616;28;20185;-73
2023/06/28 08:33:25;;;;;;;86.73;2.40;;;25.60;20.20;;;;;;4974281;28;20661;-73
2023/06/28 08:35:50;;;;;;;87.20;2.57;;;25.70;20.40;;;;;;4975048;28;20681;-73
2023/06/28 08:38:16;;;;;;;86.90;2.50;;;25.80;19.50;;;;;;4975184;28;20166;-73
2023/06/28 08:40:42;;;;;;;86.70;2.37;;;25.80;20.70;;;;;;4975246;28;20210;-73
2023/06/28 08:43:12;;;;;;;87.97;2.87;;;25.20;20.50;;;;;;4974067;28;20281;-73
2023/06/28 08:45:40;;;;;;;86.47;2.30;;;25.20;20.30;;;;;;4974976;28;20166;-73
2023/06/28 08:48:06;;;;;;;86.60;2.23;;;25.50;21.10;;;;;;4975220;28;20418;-73
2023/06/28 08:50:33;;;;;;;86.50;2.33;;;25.50;20.40;;;;;;4975129;28;20532;-74
2023/06/28 08:53:02;;;;;;;86.30;2.20;;;25.70;20.30;;;;;;4974873;28;20497;-73
2023/06/28 08:55:28;;;;;;;86.60;2.33;;;25.70;20.50;;;;;;4974847;28;20442;-73
2023/06/28 08:57:55;;;;;;;86.67;2.40;;;25.70;19.40;;;;;;4974987;28;20461;-73
2023/06/28 09:00:21;;;;;;;86.57;2.50;;;25.80;18.90;;;;;;4975047;28;20418;-73
2023/06/28 09:02:47;;;;;;;86.40;2.30;;;25.80;21.00;;;;;;4974958;28;20420;-73
2023/06/28 09:05:14;;;;;;;87.00;2.60;;;25.70;20.50;;;;;;4974479;28;20414;-73
2023/06/28 09:07:41;;;;;;;86.30;2.13;;;24.80;20.20;;;;;;4974044;28;20444;-73
2023/06/28 09:10:10;;;;;;;86.10;2.13;;;24.40;21.10;;;;;;4974750;28;20976;-73
2023/06/28 09:12:37;;;;;;;86.40;2.10;;;24.60;21.90;;;;;;4974685;28;20437;-73
2023/06/28 09:15:03;;;;;;;86.10;2.23;;;25.20;20.40;;;;;;4973216;28;20504;-73
2023/06/28 09:17:29;;;;;;;86.30;2.40;;;25.20;20.10;;;;;;4974323;28;20422;-73
2023/06/28 09:20:25;;;;;;;86.00;2.10;;;24.90;21.00;;;;;;4974652;28;20413;-73
2023/06/28 09:22:59;;;;;;;86.50;2.57;;;25.40;19.50;;;;;;4973231;28;20426;-73
2023/06/28 09:25:31;;;;;;;86.10;2.30;;;25.50;20.90;;;;;;4974274;28;20410;-73
2023/06/28 09:27:57;;;;;;;86.33;2.30;;;24.90;20.40;;;;;;4974416;28;20936;-73
2023/06/28 09:30:23;;;;;;;87.37;2.50;;;24.00;21.90;;;;;;4974327;28;20526;-73
2023/06/28 09:32:52;;;;;;;86.17;2.10;;;24.80;22.00;;;;;;4974377;28;20925;-73
2023/06/28 09:35:19;;;;;;;85.90;2.17;;;25.60;20.40;;;;;;4974201;28;20634;-73
2023/06/28 09:37:50;;;;;;;86.77;2.40;;;25.90;19.70;;;;;;4973838;28;20449;-73
2023/06/28 09:40:17;;;;;;;87.47;2.87;;;25.30;20.70;;;;;;4973297;28;20508;-73
2023/06/28 09:42:47;;;;;;;86.47;2.60;;;25.50;20.70;;;;;;4974118;28;20561;-73
2023/06/28 09:45:27;;;;;;;85.77;2.00;;;25.70;21.20;;;;;;4973825;28;20410;-73
2023/06/28 09:48:03;;;;;;;85.37;2.00;;;25.80;20.80;;;;;;4973998;28;20446;-73
2023/06/28 09:50:41;;;;;;;85.97;2.17;;;25.90;19.30;;;;;;4973865;28;20465;-73
2023/06/28 09:53:19;;;;;;;86.23;2.47;;;25.00;20.10;;;;;;4973968;28;20917;-73
2023/06/28 09:55:49;;;;;;;86.00;2.20;;;24.60;20.20;;;;;;4973754;28;20456;-73
2023/06/28 09:58:20;;;;;;;85.87;2.20;;;23.90;21.00;;;;;;4973821;28;20391;-73
2023/06/28 10:00:48;;;;;;;86.03;2.23;;;23.80;20.20;;;;;;4973961;28;20409;-73
2023/06/28 10:03:20;;;;;;;86.20;2.30;;;24.60;19.80;;;;;;4973600;28;20425;-73
2023/06/28 10:05:45;;;;;;;86.93;2.67;;;25.10;19.90;;;;;;4973589;28;20435;-74
2023/06/28 10:08:16;;;;;;;89.63;3.10;;;25.80;18.30;;;;;;4973560;28;20492;-73
2023/06/28 10:10:43;;;;;;;88.77;2.30;;;26.00;19.70;;;;;;4973766;28;20194;-73
2023/06/28 10:13:13;;;;;;;85.67;2.10;;;25.50;19.40;;;;;;4973643;28;20858;-73
2023/06/28 10:15:45;;;;;;;85.47;2.20;;;25.30;19.50;;;;;;4973421;28;20394;-73
2023/06/28 10:18:12;;;;;;;85.67;2.30;;;25.70;18.40;;;;;;4971722;28;20422;-73
2023/06/28 10:20:38;;;;;;;85.80;2.50;;;25.90;18.90;;;;;;4973152;28;20508;-73
2023/06/28 10:23:06;;;;;;;85.13;2.10;;;26.50;18.50;;;;;;4973455;28;20424;-73
2023/06/28 10:25:32;;;;;;;87.50;2.80;;;26.70;18.00;;;;;;4973305;28;20508;-73
2023/06/28 10:27:58;;;;;;;85.20;2.00;;;27.10;17.90;;;;;;4973476;28;20432;-73
2023/06/28 10:30:24;;;;;;;86.00;2.57;;;27.10;17.70;;;;;;4973187;28;20457;-73
2023/06/28 10:32:52;;;;;;;85.20;2.00;;;27.10;18.60;;;;;;4973283;28;20413;-74
2023/06/28 10:35:19;;;;;;;84.90;2.03;;;26.40;18.40;;;;;;4973018;28;20788;-73
2023/06/28 10:37:45;;;;;;;85.07;2.13;;;25.00;19.00;;;;;;4973103;28;20481;-73
2023/06/28 10:40:11;;;;;;;86.40;2.30;;;25.10;21.10;;;;;;4973165;28;20427;-73
2023/06/28 10:42:40;;;;;;;85.40;2.40;;;25.30;20.80;;;;;;4971840;28;20429;-73
2023/06/28 10:45:10;;;;;;;85.13;2.23;;;26.30;20.30;;;;;;4972807;28;20441;-74
2023/06/28 10:47:49;;;;;;;86.10;2.73;;;27.10;19.50;;;;;;4973064;28;20964;-73
2023/06/28 10:50:20;;;;;;;85.47;2.27;;;27.10;18.20;;;;;;4973083;28;20449;-73
2023/06/28 10:52:54;;;;;;;85.07;2.20;;;27.60;18.50;;;;;;4971623;28;20813;-73
2023/06/28 10:55:31;;;;;;;85.07;2.40;;;26.90;18.90;;;;;;4972805;28;20402;-73
2023/06/28 10:58:07;;;;;;;85.20;2.30;;;26.70;18.50;;;;;;4973010;28;20441;-74
2023/06/28 11:00:40;;;;;;;85.20;2.30;;;26.20;18.20;;;;;;4972699;28;20436;-73
2023/06/28 11:03:07;;;;;;;84.73;2.10;;;24.90;20.80;;;;;;4973636;28;20410;-72
2023/06/28 11:05:45;;;;;;;85.77;2.17;;;24.50;20.70;;;;;;4972714;28;20417;-72
2023/06/28 11:08:12;;;;;;;85.40;2.60;;;25.10;22.10;;;;;;4972786;28;20422;-73
2023/06/28 11:10:45;;;;;;;86.30;2.27;;;25.80;18.80;;;;;;4972688;28;20465;-73
2023/06/28 11:13:12;;;;;;;85.00;2.13;;;26.10;19.00;;;;;;4972980;28;20833;-73
2023/06/28 11:15:47;;;;;;;85.43;2.60;;;25.40;19.50;;;;;;4972536;28;20417;-73
2023/06/28 11:18:18;;;;;;;88.20;2.77;;;25.80;19.90;;;;;;4972723;28;20757;-73
2023/06/28 11:20:57;;;;;;;85.13;2.30;;;25.70;20.90;;;;;;4972676;28;20858;-73
2023/06/28 11:23:27;;;;;;;84.63;1.90;;;26.90;18.80;;;;;;4972825;28;20421;-74
2023/06/28 11:26:04;;;;;;;84.70;2.07;;;27.90;18.80;;;;;;4972414;28;20533;-73
2023/06/28 11:28:31;;;;;;;85.87;2.33;;;28.20;18.90;;;;;;4972812;28;20402;-73
2023/06/28 11:31:15;;;;;;;85.57;2.43;;;28.70;16.10;;;;;;4974477;28;20461;-73
2023/06/28 11:33:41;;;;;;;84.77;2.03;;;28.70;15.70;;;;;;4977205;28;20410;-73
2023/06/28 11:36:08;;;;;;;85.27;2.10;;;28.70;16.90;;;;;;4974591;28;20457;-73
2023/06/28 11:38:35;;;;;;;84.70;2.20;;;28.30;16.60;;;;;;4976504;28;20776;-73
2023/06/28 11:41:00;;;;;;;84.57;1.97;;;28.30;17.10;;;;;;4976990;28;20410;-73
2023/06/28 11:43:26;;;;;;;85.03;2.37;;;28.50;17.70;;;;;;4976478;28;20898;-73
2023/06/28 11:45:52;;;;;;;84.90;2.20;;;28.30;16.80;;;;;;4975699;28;20195;-73
2023/06/28 11:48:20;;;;;;;85.53;2.93;;;26.90;17.80;;;;;;4976380;28;20181;-74
2023/06/28 11:51:03;;;;;;;84.60;2.20;;;26.30;18.90;;;;;;4974860;28;20462;-74
2023/06/28 11:53:31;;;;;;;85.40;2.17;;;26.10;18.90;;;;;;4976743;28;20397;-74
2023/06/28 11:55:57;;;;;;;84.80;2.40;;;26.40;18.70;;;;;;4975752;28;20434;-74
2023/06/28 11:58:34;;;;;;;84.30;2.33;;;27.40;17.90;;;;;;4976086;28;20782;-74
2023/06/28 12:01:00;;;;;;;84.90;2.30;;;27.40;17.20;;;;;;4976141;28;20863;-74
2023/06/28 12:03:34;;;;;;;84.57;2.33;;;27.20;17.60;;;;;;4976160;28;20409;-74
2023/06/28 12:06:01;;;;;;;84.07;2.00;;;27.80;16.70;;;;;;4975377;28;20523;-74
2023/06/28 12:08:34;;;;;;;84.37;1.80;;;28.60;16.20;;;;;;4976022;28;20456;-74
2023/06/28 12:11:01;;;;;;;84.07;1.73;;;30.20;14.60;;;;;;4975814;28;20457;-75
2023/06/28 12:13:27;;;;;;;83.97;1.97;;;31.40;13.50;;;;;;4975945;28;20832;-74
2023/06/28 12:15:54;;;;;;;83.93;2.00;;;31.60;12.80;;;;;;4975306;28;20433;-74
2023/06/28 12:18:19;;;;;;;83.67;2.03;;;29.90;14.10;;;;;;4975843;28;20789;-74
2023/06/28 12:20:45;;;;;;;84.67;2.00;;;28.50;15.60;;;;;;4975678;28;20508;-74
2023/06/28 12:23:12;;;;;;;83.00;1.83;;;29.40;15.30;;;;;;4975577;28;20178;-74
2023/06/28 12:25:44;;;;;;;83.87;2.00;;;30.40;14.00;;;;;;4975290;28;20469;-75
2023/06/28 12:28:14;;;;;;;82.77;1.97;;;32.10;12.60;;;;;;4975707;28;20414;-75
2023/06/28 12:30:40;;;;;;;82.17;1.80;;;31.90;10.70;;;;;;4975705;28;20461;-74
2023/06/28 12:33:07;;;;;;;81.73;1.70;;;32.00;11.50;;;;;;4974667;28;20781;-74
2023/06/28 12:35:33;;;;;;;81.70;1.70;;;31.30;11.20;;;;;;4975121;28;20697;-75